M/T Vemaoil Xi — 9HWD7 — position and weather

sailwx.info

Track history (hours):
 
Tides and Currents Weather Stations Pressure Air Temp Water Temp Dewpoint Dewpoint Depression Visibility Wind Speed Wind Dir Waves Ship Positions

M/T Vemaoil Xi

Last reported at 2015-Apr-19 15:28 UTC. Time now 2015-Apr-19 15:38 UTC.
Position N 35°49' E 014°35'.

Length 105 m; draft 6.6 m.

Type: Tanker. MMSI: 215631000.

Date/timePositionNaut miles runAvg speedWind from/ knotsBaromVisibWave heightAir tempDewpointWater temp
2015-Apr-19 15:28N 35°49' E 014°35'0 0.0
2015-Apr-19 14:24N 35°49' E 014°35'0 0.0
2015-Apr-19 13:33N 35°49' E 014°35'0 0.0
2015-Apr-19 12:33N 35°49' E 014°35'1 0.6
2015-Apr-19 10:33N 35°50' E 014°36'7 6.9
2015-Apr-19 09:34N 35°52' E 014°44'2 1.9
2015-Apr-19 08:33N 35°53' E 014°47'0 0.0
2015-Apr-19 07:21N 35°53' E 014°47'0 0.0
2015-Apr-19 06:30N 35°53' E 014°47'0 0.1
2015-Apr-19 05:30N 35°53' E 014°47'0 0.0
2015-Apr-19 04:33N 35°53' E 014°47'0 0.0
2015-Apr-19 03:33N 35°53' E 014°47'4 4.1
2015-Apr-19 02:34N 35°54' E 014°42'7 6.7
2015-Apr-19 01:28N 35°54' E 014°33'2 0.7
2015-Apr-18 23:19N 35°53' E 014°31'0 0.0
2015-Apr-18 21:31N 35°53' E 014°31'0 0.0
2015-Apr-18 20:31N 35°53' E 014°31'0 0.0
2015-Apr-18 19:19N 35°53' E 014°31'0 0.3
2015-Apr-18 18:33N 35°53' E 014°31'5 4.8
2015-Apr-18 17:33N 35°51' E 014°36'1 1.0
2015-Apr-18 16:25N 35°50' E 014°36'0 0.0
2015-Apr-18 15:31N 35°50' E 014°36'0 0.1
2015-Apr-18 14:28N 35°50' E 014°36'0 0.1
2015-Apr-18 13:31N 35°50' E 014°36'5 5.0
2015-Apr-18 12:33N 35°51' E 014°42'5 5.6
2015-Apr-18 11:33N 35°55' E 014°47'0 0.0
2015-Apr-18 10:33N 35°55' E 014°46'0 0.0
2015-Apr-18 09:33N 35°55' E 014°46'0 0.0
2015-Apr-18 08:33N 35°55' E 014°46'0 0.0
2015-Apr-18 07:33N 35°55' E 014°46'0 0.0
2015-Apr-18 06:33N 35°55' E 014°46'0 0.0
2015-Apr-18 05:33N 35°55' E 014°46'3 0.8
2015-Apr-18 02:03N 35°53' E 014°44'0 0.0
2015-Apr-18 01:31N 35°53' E 014°44'0 0.0
2015-Apr-18 00:31N 35°53' E 014°44'0 0.0
2015-Apr-17 23:28N 35°53' E 014°44'0 0.0
2015-Apr-17 22:31N 35°53' E 014°44'0 0.0
2015-Apr-17 21:25N 35°53' E 014°44'0 0.0
2015-Apr-17 20:31N 35°53' E 014°44'0 0.2
2015-Apr-17 19:31N 35°53' E 014°44'6 5.8
2015-Apr-17 18:33N 35°50' E 014°39'3 3.0
2015-Apr-17 17:31N 35°49' E 014°35'0 0.0
2015-Apr-17 16:28N 35°49' E 014°35'0 0.0
2015-Apr-17 15:31N 35°49' E 014°35'0 0.0
2015-Apr-17 14:31N 35°49' E 014°35'0 0.0
2015-Apr-17 13:31N 35°49' E 014°35'0 0.0
2015-Apr-17 12:31N 35°49' E 014°35'0 0.0
2015-Apr-17 11:25N 35°49' E 014°35'0 0.0
2015-Apr-17 10:28N 35°49' E 014°35'0 0.0
2015-Apr-17 09:25N 35°49' E 014°35'0 0.0
2015-Apr-17 02:25N 35°49' E 014°35'0 0.0
2015-Apr-16 23:04N 35°49' E 014°35'0 0.0
2015-Apr-16 22:17N 35°49' E 014°35'0 0.0
2015-Apr-16 21:30N 35°49' E 014°35'0 0.0
2015-Apr-16 20:33N 35°49' E 014°35'0 0.1
2015-Apr-16 19:33N 35°49' E 014°35'0 0.1
2015-Apr-16 18:33N 35°49' E 014°35'4 4.0
2015-Apr-16 17:33N 35°51' E 014°39'5 4.8
2015-Apr-16 16:28N 35°54' E 014°45'0 0.0
2015-Apr-16 14:31N 35°54' E 014°45'2 2.1
2015-Apr-16 13:33N 35°53' E 014°43'6 5.8
2015-Apr-16 12:33N 35°51' E 014°36'0 0.0
2015-Apr-16 11:21N 35°51' E 014°36'3 0.2
2015-Apr-15 22:13N 35°49' E 014°33'0 0.0
2015-Apr-15 20:28N 35°49' E 014°33'0 0.0
2015-Apr-15 19:31N 35°49' E 014°33'0 0.0
2015-Apr-15 15:20N 35°49' E 014°33'0 0.0
2015-Apr-15 14:26N 35°49' E 014°33'0 0.0
2015-Apr-15 13:20N 35°49' E 014°33'0 0.0
2015-Apr-15 10:28N 35°49' E 014°33'0 0.0
2015-Apr-15 09:33N 35°49' E 014°33'0 0.0
2015-Apr-15 08:33N 35°49' E 014°33'0 0.0
2015-Apr-15 07:15N 35°49' E 014°33'1 0.9
2015-Apr-15 06:33N 35°49' E 014°33'2 1.7
2015-Apr-15 05:32N 35°49' E 014°35'0 0.1
2015-Apr-15 04:33N 35°50' E 014°35'0 0.4
2015-Apr-15 03:33N 35°50' E 014°36'0 0.0
2015-Apr-15 02:32N 35°50' E 014°36'0 0.0
2015-Apr-15 01:33N 35°50' E 014°36'0 0.0
2015-Apr-15 00:33N 35°50' E 014°36'0 0.0
2015-Apr-14 23:33N 35°50' E 014°36'3 2.3
2015-Apr-14 22:23N 35°49' E 014°33'0 0.0
2015-Apr-14 20:29N 35°49' E 014°33'2 0.5
2015-Apr-14 16:27N 35°49' E 014°35'0 0.0
2015-Apr-14 15:33N 35°49' E 014°35'0 0.1
2015-Apr-14 14:34N 35°49' E 014°35'0 0.0
2015-Apr-14 13:33N 35°49' E 014°35'0 0.0
2015-Apr-14 12:33N 35°49' E 014°35'0 0.0
2015-Apr-14 11:33N 35°49' E 014°35'0 0.0
2015-Apr-14 10:33N 35°49' E 014°35'0 0.0
2015-Apr-14 09:33N 35°49' E 014°35'0 0.0
2015-Apr-14 08:33N 35°49' E 014°35'0 0.0
2015-Apr-14 07:33N 35°49' E 014°35'0 0.0
2015-Apr-14 06:16N 35°49' E 014°35'0 0.0
2015-Apr-14 05:33N 35°49' E 014°35'0 0.0
2015-Apr-14 04:19N 35°49' E 014°35'0 0.0
2015-Apr-14 03:33N 35°49' E 014°35'0 0.0
2015-Apr-14 02:17N 35°49' E 014°35'0 0.0
2015-Apr-13 23:33N 35°49' E 014°35'0 0.0
2015-Apr-13 22:20N 35°49' E 014°35'0 0.0
2015-Apr-13 21:08N 35°49' E 014°35'0 0.0
2015-Apr-13 20:33N 35°49' E 014°35'0 0.0
2015-Apr-13 19:33N 35°49' E 014°35'0 0.0
2015-Apr-13 18:33N 35°49' E 014°35'0 0.0
2015-Apr-13 17:33N 35°49' E 014°35'0 0.0
2015-Apr-13 16:28N 35°49' E 014°35'0 0.0
2015-Apr-13 13:24N 35°49' E 014°35'0 0.0
2015-Apr-13 09:29N 35°49' E 014°35'0 0.0
2015-Apr-13 08:33N 35°49' E 014°35'0 0.0
2015-Apr-13 05:32N 35°49' E 014°35'0 0.0
2015-Apr-13 04:31N 35°49' E 014°35'0 0.0
2015-Apr-13 02:07N 35°49' E 014°35'0 0.0
2015-Apr-12 23:17N 35°49' E 014°35'0 0.0
2015-Apr-12 03:05N 35°49' E 014°35'0 0.0
2015-Apr-12 02:26N 35°49' E 014°35'8 1.9
2015-Apr-11 22:22N 35°52' E 014°44'  
Track history (hours):
 
Tides and Currents Weather Stations Pressure Air Temp Water Temp Dewpoint Dewpoint Depression Visibility Wind Speed Wind Dir Waves Ship Positions

M/T Vemaoil Xi

Last reported at 2015-Apr-19 15:28 UTC. Time now 2015-Apr-19 15:38 UTC.
Position N 35°49' E 014°35'.

Length 105 m; draft 6.6 m.

Type: Tanker. MMSI: 215631000.

Date/timePositionNaut miles runAvg speedWind from/ knotsBaromVisibWave heightAir tempDewpointWater temp
2015-Apr-19 15:28N 35°49' E 014°35'0 0.0
2015-Apr-19 14:24N 35°49' E 014°35'0 0.0
2015-Apr-19 13:33N 35°49' E 014°35'0 0.0
2015-Apr-19 12:33N 35°49' E 014°35'1 0.6
2015-Apr-19 10:33N 35°50' E 014°36'7 6.9
2015-Apr-19 09:34N 35°52' E 014°44'2 1.9
2015-Apr-19 08:33N 35°53' E 014°47'0 0.0
2015-Apr-19 07:21N 35°53' E 014°47'0 0.0
2015-Apr-19 06:30N 35°53' E 014°47'0 0.1
2015-Apr-19 05:30N 35°53' E 014°47'0 0.0
2015-Apr-19 04:33N 35°53' E 014°47'0 0.0
2015-Apr-19 03:33N 35°53' E 014°47'4 4.1
2015-Apr-19 02:34N 35°54' E 014°42'7 6.7
2015-Apr-19 01:28N 35°54' E 014°33'2 0.7
2015-Apr-18 23:19N 35°53' E 014°31'0 0.0
2015-Apr-18 21:31N 35°53' E 014°31'0 0.0
2015-Apr-18 20:31N 35°53' E 014°31'0 0.0
2015-Apr-18 19:19N 35°53' E 014°31'0 0.3
2015-Apr-18 18:33N 35°53' E 014°31'5 4.8
2015-Apr-18 17:33N 35°51' E 014°36'1 1.0
2015-Apr-18 16:25N 35°50' E 014°36'0 0.0
2015-Apr-18 15:31N 35°50' E 014°36'0 0.1
2015-Apr-18 14:28N 35°50' E 014°36'0 0.1
2015-Apr-18 13:31N 35°50' E 014°36'5 5.0
2015-Apr-18 12:33N 35°51' E 014°42'5 5.6
2015-Apr-18 11:33N 35°55' E 014°47'0 0.0
2015-Apr-18 10:33N 35°55' E 014°46'0 0.0
2015-Apr-18 09:33N 35°55' E 014°46'0 0.0
2015-Apr-18 08:33N 35°55' E 014°46'0 0.0
2015-Apr-18 07:33N 35°55' E 014°46'0 0.0
2015-Apr-18 06:33N 35°55' E 014°46'0 0.0
2015-Apr-18 05:33N 35°55' E 014°46'3 0.8
2015-Apr-18 02:03N 35°53' E 014°44'0 0.0
2015-Apr-18 01:31N 35°53' E 014°44'0 0.0
2015-Apr-18 00:31N 35°53' E 014°44'0 0.0
2015-Apr-17 23:28N 35°53' E 014°44'0 0.0
2015-Apr-17 22:31N 35°53' E 014°44'0 0.0
2015-Apr-17 21:25N 35°53' E 014°44'0 0.0
2015-Apr-17 20:31N 35°53' E 014°44'0 0.2
2015-Apr-17 19:31N 35°53' E 014°44'6 5.8
2015-Apr-17 18:33N 35°50' E 014°39'3 3.0
2015-Apr-17 17:31N 35°49' E 014°35'0 0.0
2015-Apr-17 16:28N 35°49' E 014°35'0 0.0
2015-Apr-17 15:31N 35°49' E 014°35'0 0.0
2015-Apr-17 14:31N 35°49' E 014°35'0 0.0
2015-Apr-17 13:31N 35°49' E 014°35'0 0.0
2015-Apr-17 12:31N 35°49' E 014°35'0 0.0
2015-Apr-17 11:25N 35°49' E 014°35'0 0.0
2015-Apr-17 10:28N 35°49' E 014°35'0 0.0
2015-Apr-17 09:25N 35°49' E 014°35'0 0.0
2015-Apr-17 02:25N 35°49' E 014°35'0 0.0
2015-Apr-16 23:04N 35°49' E 014°35'0 0.0
2015-Apr-16 22:17N 35°49' E 014°35'0 0.0
2015-Apr-16 21:30N 35°49' E 014°35'0 0.0
2015-Apr-16 20:33N 35°49' E 014°35'0 0.1
2015-Apr-16 19:33N 35°49' E 014°35'0 0.1
2015-Apr-16 18:33N 35°49' E 014°35'4 4.0
2015-Apr-16 17:33N 35°51' E 014°39'5 4.8
2015-Apr-16 16:28N 35°54' E 014°45'0 0.0
2015-Apr-16 14:31N 35°54' E 014°45'2 2.1
2015-Apr-16 13:33N 35°53' E 014°43'6 5.8
2015-Apr-16 12:33N 35°51' E 014°36'0 0.0
2015-Apr-16 11:21N 35°51' E 014°36'3 0.2
2015-Apr-15 22:13N 35°49' E 014°33'0 0.0
2015-Apr-15 20:28N 35°49' E 014°33'0 0.0
2015-Apr-15 19:31N 35°49' E 014°33'0 0.0
2015-Apr-15 15:20N 35°49' E 014°33'0 0.0
2015-Apr-15 14:26N 35°49' E 014°33'0 0.0
2015-Apr-15 13:20N 35°49' E 014°33'0 0.0
2015-Apr-15 10:28N 35°49' E 014°33'0 0.0
2015-Apr-15 09:33N 35°49' E 014°33'0 0.0
2015-Apr-15 08:33N 35°49' E 014°33'0 0.0
2015-Apr-15 07:15N 35°49' E 014°33'1 0.9
2015-Apr-15 06:33N 35°49' E 014°33'2 1.7
2015-Apr-15 05:32N 35°49' E 014°35'0 0.1
2015-Apr-15 04:33N 35°50' E 014°35'0 0.4
2015-Apr-15 03:33N 35°50' E 014°36'0 0.0
2015-Apr-15 02:32N 35°50' E 014°36'0 0.0
2015-Apr-15 01:33N 35°50' E 014°36'0 0.0
2015-Apr-15 00:33N 35°50' E 014°36'0 0.0
2015-Apr-14 23:33N 35°50' E 014°36'3 2.3
2015-Apr-14 22:23N 35°49' E 014°33'0 0.0
2015-Apr-14 20:29N 35°49' E 014°33'2 0.5
2015-Apr-14 16:27N 35°49' E 014°35'0 0.0
2015-Apr-14 15:33N 35°49' E 014°35'0 0.1
2015-Apr-14 14:34N 35°49' E 014°35'0 0.0
2015-Apr-14 13:33N 35°49' E 014°35'0 0.0
2015-Apr-14 12:33N 35°49' E 014°35'0 0.0
2015-Apr-14 11:33N 35°49' E 014°35'0 0.0
2015-Apr-14 10:33N 35°49' E 014°35'0 0.0
2015-Apr-14 09:33N 35°49' E 014°35'0 0.0
2015-Apr-14 08:33N 35°49' E 014°35'0 0.0
2015-Apr-14 07:33N 35°49' E 014°35'0 0.0
2015-Apr-14 06:16N 35°49' E 014°35'0 0.0
2015-Apr-14 05:33N 35°49' E 014°35'0 0.0
2015-Apr-14 04:19N 35°49' E 014°35'0 0.0
2015-Apr-14 03:33N 35°49' E 014°35'0 0.0
2015-Apr-14 02:17N 35°49' E 014°35'0 0.0
2015-Apr-13 23:33N 35°49' E 014°35'0 0.0
2015-Apr-13 22:20N 35°49' E 014°35'0 0.0
2015-Apr-13 21:08N 35°49' E 014°35'0 0.0
2015-Apr-13 20:33N 35°49' E 014°35'0 0.0
2015-Apr-13 19:33N 35°49' E 014°35'0 0.0
2015-Apr-13 18:33N 35°49' E 014°35'0 0.0
2015-Apr-13 17:33N 35°49' E 014°35'0 0.0
2015-Apr-13 16:28N 35°49' E 014°35'0 0.0
2015-Apr-13 13:24N 35°49' E 014°35'0 0.0
2015-Apr-13 09:29N 35°49' E 014°35'0 0.0
2015-Apr-13 08:33N 35°49' E 014°35'0 0.0
2015-Apr-13 05:32N 35°49' E 014°35'0 0.0
2015-Apr-13 04:31N 35°49' E 014°35'0 0.0
2015-Apr-13 02:07N 35°49' E 014°35'0 0.0
2015-Apr-12 23:17N 35°49' E 014°35'0 0.0
2015-Apr-12 03:05N 35°49' E 014°35'0 0.0
2015-Apr-12 02:26N 35°49' E 014°35'8 1.9
2015-Apr-11 22:22N 35°52' E 014°44'  

Dump ship's entire track history